KCEY/CEY METAR and TAF weather

Enter ICAO airport designator
Station Type Date Time Source
KCEY METAR 2018/06/25 01:55 UTC NOAA

KCEY 250155Z AUTO 06004KT 10SM BKN043 BKN050 OVC075 23/23 A2993 RMK AO1


Station Type Date Time Source
KCEY Decoded METAR 2018/06/25 01:55 UTC NOAA

Station name not available
Jun 24, 2018 - 09:55 PM EDT / 2018.06.25 0155 UTC
Wind: from the ENE (060 degrees) at 5 MPH (4 KT):0
Visibility: 10 mile(s):0
Sky conditions: overcast
Temperature: 73 F (23 C)
Dew Point: 73 F (23 C)
Relative Humidity: 100%
Pressure (altimeter): 29.93 in. Hg (1013 hPa)
ob: KCEY 250155Z AUTO 06004KT 10SM BKN043 BKN050 OVC075 23/23 A2993 RMK AO1
cycle: 2

Station Type Date Time Source
KCEY TAF UTC NOAA

Error!


Example: see airport list